Alpine Airstrip, AK

1:51 AM AKDT on October 20, 2014 (GMT -0800)
Deadhorse Alpine Airstrip | Change Station
CLOSE
Current Station
Airport
Location: Deadhorse Alpine Airstrip,
Elevation: 16 ft
Nearby Weather Stations

Elev 16 ft 70.34 °N, 150.94 °W | Updated 9 hours ago

Snow
Snow
22 °F
Feels Like 4 °F
N
33
Wind Variable Wind from ENE
Gusts mph

Today
High -- | Low -- °F
--% Chance of Precip.
Yesterday
High -- | Low -- °F
Precip. -- in
9:41 AM 5:53 PM
Waning Crescent, 12% visible
Pressure 29.74 in
Visibility 4.0 miles
Clouds Mostly Cloudy 700 ft
Overcast 1600 ft
Windchill 4 °F
Dew Point 18 °F
Humidity 83%
Rainfall 0.00 in
Snow Depth Not available.
UV 0 out of 12
Pollen Not available.
Air Quality Not available.
Flu Activity Sporadic
METAR PALP 200050Z 06020G32KT 4SM -FZDZ BR BKN007 OVC016 M03/M05 A2974

More Conditions Fewer Conditions

Pressure 29.74 in
Visibility 4.0 miles
Clouds Mostly Cloudy 700 ft
Overcast 1600 ft
Windchill 4 °F
Dew Point 18 °F
Humidity 83%
Rainfall 0.00 in
Snow Depth Not available.
UV 0 out of 12
Pollen Not available.
Air Quality Not available.
Flu Activity Sporadic
METAR PALP 200050Z 06020G32KT 4SM -FZDZ BR BKN007 OVC016 M03/M05 A2974

More Conditions Fewer Conditions

10-Day Weather Forecast

Almanac

Astronomy

Oct. 20, 2014 Rise Set
Actual Time 9:41 AM AKDT 5:53 PM AKDT
Civil Twilight 8:35 AM AKDT 7:00 PM AKDT
Nautical Twilight 7:22 AM AKDT 8:11 PM AKDT
Astronomical Twilight 6:09 AM AKDT 9:24 PM AKDT
Moon 5:02 AM AKDT 5:43 PM AKDT
Length of Visible Light 10h 25m
Length of Day
8h 11m
Waning Crescent, 12% of the Moon is Illuminated
Today
Waning Crescent
Oct 23
New
Oct 30
First Quarter
Nov 6
Full
Nov 14
Last Quarter

Today's Extremes

State Highs State Lows

Community

WunderPhotos

Upload Photos

1,763,325 photos uploaded!

Nearby

Snow Depth

Station Depth Elevation
Imnaviat Creek 21 in 3050 ft
Atigun Pass 13 in 4800 ft
Coldfoot 4 in 1040 ft
Gobblers Knob 2 in 2030 ft
Fort Yukon 3 in 430 ft

Earthquake Activity

City Distance Mag. Time & Date
No recent earthquake activity has been reported nearby.
Minimum magnitude displayed is 2.5.

Coastal Water Temperatures

Place Temperature
No Stations Reporting

Nearby Weather Stations